Date,TemperatureHighF,TemperatureAvgF,TemperatureLowF,DewpointHighF,DewpointAvgF,DewpointLowF,HumidityHigh,HumidityAvg,HumidityLow,PressureMaxIn,PressureMinIn,WindSpeedMaxMPH,WindSpeedAvgMPH,GustSpeedMaxMPH,PrecipitationSumIn
2013-1-10,34,34,33,32,32,31,94,94,93,29.92,29.90,0,0,0,0.00
2013-1-11,38,31,25,32,28,22,95,88,64,30.12,29.91,0,0,0,0.01
2013-1-12,36,26,21,30,23,18,92,87,72,30.23,30.11,0,0,0,0.00
2013-1-13,36,26,18,32,22,15,92,86,70,30.29,30.21,0,0,0,0.02
2013-1-14,34,30,24,31,28,21,93,91,88,30.35,30.26,9,1,9,0.00
2013-1-15,37,33,28,34,31,26,95,92,88,30.47,30.34,10,2,10,0.09
2013-1-16,33,30,28,31,29,26,95,94,92,30.45,30.29,5,1,5,0.00
2013-1-17,34,30,28,32,29,26,96,95,94,30.30,30.09,7,1,7,0.00
2013-1-18,46,33,26,42,30,24,95,92,87,30.10,30.03,8,2,8,0.00
2013-1-19,34,32,30,33,30,29,96,96,95,30.15,30.09,6,2,6,0.00
2013-1-20,34,31,30,32,30,28,96,96,95,30.16,30.04,5,1,5,0.00
2013-1-21,43,31,26,40,30,24,96,93,87,30.05,29.90,5,1,5,0.00
2013-1-22,40,32,25,36,29,23,94,91,86,29.91,29.69,9,3,9,0.00
2013-1-23,38,36,34,36,34,31,94,91,84,29.96,29.65,13,5,13,0.18
2013-1-24,46,39,32,43,37,30,95,93,88,30.00,29.84,16,6,16,0.12
2013-1-25,52,42,32,49,40,30,96,92,82,29.86,29.71,12,4,12,0.09
2013-1-26,45,40,32,42,37,30,94,91,86,29.84,29.67,15,4,15,0.32
2013-1-27,41,38,33,39,36,31,94,92,89,29.88,29.80,14,4,14,0.03
2013-1-28,42,40,36,41,38,34,95,93,88,29.94,29.82,8,2,8,0.33
2013-1-29,49,44,40,46,42,38,95,92,81,30.19,29.93,12,2,12,0.11
2013-1-30,50,46,44,48,45,42,95,94,91,30.19,30.13,7,2,7,0.23
2013-1-31,49,44,38,47,42,36,95,93,89,30.21,30.09,11,3,12,0.04
2013-2-1,52,42,37,46,40,36,96,91,78,30.16,30.09,8,2,8,0.00
2013-2-2,44,38,34,42,35,32,94,92,90,30.12,30.07,5,2,5,0.00
2013-2-3,45,43,41,43,42,40,95,94,92,30.09,30.05,9,6,9,0.00
2013-2-4,52,48,42,46,44,40,94,87,82,29.93,29.69,12,4,12,0.00
2013-2-5,52,45,42,46,42,39,93,89,76,29.76,29.63,21,7,21,0.68
2013-2-6,46,44,41,44,42,39,93,91,86,29.84,29.56,21,9,21,0.32
2013-2-7,49,40,31,42,36,28,93,86,70,29.95,29.60,19,4,19,0.11
2013-2-8,46,38,30,38,34,28,96,86,71,30.07,29.95,9,2,9,0.01
2013-2-9,47,40,33,42,37,30,94,89,81,30.09,30.02,6,1,6,0.00
2013-2-10,45,42,40,40,38,37,95,87,77,30.14,30.09,10,2,10,0.00
2013-2-11,50,43,39,46,40,37,93,91,85,30.14,30.09,8,2,9,0.00
2013-2-12,52,46,42,48,44,40,94,89,79,30.20,30.12,15,3,15,0.00
2013-2-13,49,44,35,44,40,32,93,87,72,30.29,30.15,8,2,8,0.00
2013-2-14,47,41,34,44,39,31,94,92,89,30.32,30.27,11,2,11,0.00
2013-2-15,55,46,36,48,42,33,95,88,74,30.30,29.95,9,2,9,0.00
2013-2-16,52,42,34,45,38,32,95,87,67,30.03,29.96,11,2,11,0.05
2013-2-17,48,39,33,40,35,30,93,86,64,30.04,29.87,9,2,9,0.02
2013-2-18,46,39,34,40,36,32,93,87,77,29.87,29.49,16,5,16,0.10
2013-2-19,51,41,32,41,36,28,94,84,63,29.77,29.47,15,3,15,0.00
2013-2-20,44,36,30,41,33,27,93,89,81,29.83,29.75,13,3,13,0.17
2013-2-21,45,40,38,41,38,36,94,91,85,29.89,29.79,18,4,18,0.18
2013-2-22,48,42,36,44,38,33,94,89,75,29.87,29.56,25,8,25,1.39
2013-2-23,47,40,36,42,35,32,92,84,64,30.17,29.76,23,3,23,0.31
2013-2-24,49,42,37,42,38,34,91,84,75,30.17,29.74,22,8,22,0.05
2013-2-25,48,41,34,40,36,30,91,83,63,30.11,29.70,21,3,21,0.71
2013-2-26,48,40,33,41,35,30,92,85,71,30.12,29.98,20,6,20,0.03
2013-2-27,47,44,40,43,41,38,93,90,87,30.06,29.98,14,4,14,0.11
2013-2-28,56,51,44,53,48,42,95,91,86,30.14,29.95,18,8,18,0.48
2013-3-1,58,52,47,53,49,45,94,91,84,30.18,30.06,14,5,14,0.17
2013-3-2,55,47,39,50,44,34,94,87,78,30.07,29.89,14,4,14,0.04
2013-3-3,49,40,32,40,34,28,91,81,63,30.06,30.01,18,3,18,0.00
2013-3-4,57,38,27,40,31,25,95,78,45,30.04,29.67,13,2,13,0.01
2013-3-5,45,40,32,41,36,27,93,88,82,29.67,29.44,12,0,12,0.22
2013-3-6,44,42,40,41,40,38,95,92,88,29.67,29.33,0,0,0,0.34
2013-3-7,56,44,34,46,39,31,93,84,56,29.83,29.67,0,0,0,0.08
2013-3-8,51,40,32,42,36,30,95,86,70,29.99,29.82,0,0,0,0.00
2013-3-9,60,42,29,48,36,27,93,82,59,30.27,29.99,0,0,0,0.01
2013-3-10,46,40,32,43,37,28,92,89,84,30.26,30.17,0,0,0,0.06
2013-3-11,53,47,43,48,44,40,93,90,83,30.19,29.95,0,0,0,0.01
2013-3-12,54,51,48,50,48,46,94,89,83,29.95,29.88,18,1,18,0.03
2013-3-13,56,52,48,51,48,45,91,87,83,29.94,29.84,8,1,8,0.00
2013-3-14,55,50,47,50,47,45,96,88,74,29.93,29.79,23,3,23,0.07
2013-3-15,59,51,44,52,47,42,94,84,64,29.97,29.92,12,2,12,0.00
2013-3-16,50,46,39,45,42,35,90,86,71,29.92,29.74,14,3,14,0.21
2013-3-17,47,40,35,40,35,32,91,83,66,30.02,29.82,13,2,13,0.14
2013-3-18,54,42,34,44,36,29,91,79,50,30.00,29.96,12,2,12,0.07
2013-3-19,48,40,31,44,36,28,92,87,76,29.95,29.35,15,4,15,0.54
2013-3-20,50,46,37,48,42,33,93,86,76,29.86,29.18,22,2,22,1.51
2013-3-21,49,39,35,38,34,31,92,81,59,30.02,29.85,18,2,18,0.16
2013-3-22,44,36,31,37,32,28,91,85,67,30.13,30.01,15,2,15,0.09
2013-3-23,52,38,32,40,33,28,90,81,57,30.14,30.04,6,1,6,0.01
2013-3-24,56,42,34,41,35,30,89,76,53,30.04,29.85,6,1,6,0.00
2013-3-25,60,46,34,46,38,30,89,73,46,29.86,29.68,4,1,4,0.00
2013-3-26,59,50,42,47,44,39,88,78,61,29.76,29.71,5,1,5,0.02
2013-3-27,62,53,48,51,47,44,90,80,56,29.73,29.67,8,1,8,0.05
2013-3-28,62,53,49,53,48,45,91,84,62,29.90,29.75,10,1,10,0.22
2013-3-29,64,52,44,51,46,39,93,80,58,29.99,29.90,8,2,8,0.00
2013-3-30,68,52,38,50,42,34,91,73,48,29.99,29.79,13,3,13,0.00
2013-3-31,76,56,39,53,45,34,85,69,39,29.80,29.64,7,2,7,0.00
2013-4-1,68,54,45,52,45,40,85,73,50,29.92,29.75,13,3,13,0.00
2013-4-2,59,52,47,49,46,42,88,78,64,29.96,29.90,8,2,8,0.00
2013-4-3,64,54,47,53,48,43,89,79,62,29.94,29.69,7,1,7,0.00
2013-4-4,58,52,48,53,49,46,91,87,77,29.68,29.41,17,4,17,0.35
2013-4-5,57,52,49,51,48,45,92,87,76,29.65,29.47,20,5,20,1.61
2013-4-6,56,49,44,49,44,39,90,83,66,29.71,29.46,21,4,21,1.54
2013-4-7,52,46,41,46,41,37,94,85,72,29.67,29.20,16,2,16,0.83
2013-4-8,54,46,40,46,40,37,92,81,64,30.04,29.67,9,2,9,0.00
2013-4-9,54,48,37,46,43,33,92,81,69,30.09,29.96,14,5,14,0.00
2013-4-10,55,51,46,50,44,39,92,79,66,30.06,29.77,16,5,16,0.38
2013-4-11,55,46,37,44,38,32,89,75,51,30.08,29.94,15,3,15,0.01
2013-4-12,49,42,34,43,37,29,91,82,66,29.95,29.52,19,4,19,0.08
2013-4-13,52,44,37,43,38,33,88,80,68,29.78,29.61,15,2,15,0.22
2013-4-14,52,42,35,45,38,32,90,84,68,29.79,29.69,11,1,12,0.15
2013-4-15,55,42,31,41,35,28,91,77,49,29.95,29.69,19,2,19,0.14
2013-4-16,57,45,36,43,37,32,93,74,47,30.15,29.93,14,2,14,0.00
2013-4-17,56,45,32,46,37,28,89,76,56,30.21,30.15,12,2,12,0.01
2013-4-18,54,48,43,47,43,39,89,83,75,30.21,30.01,14,5,14,0.02
2013-4-19,58,52,49,51,47,44,92,84,68,30.01,29.83,15,6,15,0.08
2013-4-20,58,51,46,48,44,41,91,79,65,30.06,30.00,16,3,16,0.01
2013-4-21,56,48,41,46,42,37,90,80,60,30.10,29.98,13,2,13,0.01
2013-4-22,61,47,34,45,36,30,94,71,36,30.23,30.10,13,3,13,0.00
2013-4-23,64,47,32,40,32,27,85,60,29,30.17,29.94,17,2,17,0.00
2013-4-24,70,51,33,44,36,28,84,59,28,30.06,29.80,14,3,14,0.00
2013-4-25,72,54,37,49,41,32,84,63,39,29.93,29.78,13,3,13,0.00
2013-4-26,74,54,37,53,40,33,91,64,28,30.01,29.92,11,2,11,0.00
2013-4-27,58,50,39,48,42,33,85,75,54,30.01,29.95,11,2,11,0.00
2013-4-29,42,42,42,36,35,34,77,75,74,29.96,29.95,9,3,9,0.00
2013-4-30,56,46,37,38,34,30,86,66,40,30.21,29.96,16,4,16,0.03
2013-5-1,37,33,31,30,28,26,82,79,75,30.28,30.21,4,1,4,0.00
2013-5-5,62,58,53,45,43,41,65,59,53,29.56,29.52,3,1,3,0.00
2013-5-6,83,62,42,58,47,36,79,60,30,29.61,29.52,15,3,15,0.00
2013-5-7,70,58,48,55,49,41,83,73,56,29.78,29.61,14,3,14,0.00
2013-5-8,72,59,51,55,50,45,89,74,51,29.90,29.78,12,3,12,0.00
2013-5-9,76,59,48,58,50,43,90,73,43,29.96,29.84,13,3,13,0.00
2013-5-10,81,63,46,60,51,41,88,67,38,29.94,29.84,10,2,10,0.00
2013-5-11,82,66,53,62,55,48,84,69,42,29.95,29.75,12,3,12,0.00
2013-5-12,75,64,59,57,54,51,87,70,46,29.85,29.77,20,3,20,0.00
2013-5-13,64,57,44,56,49,38,86,76,58,29.96,29.73,21,4,21,0.10
2013-5-14,65,53,42,48,43,37,87,71,46,29.97,29.85,7,2,7,0.00
2013-5-15,59,51,42,52,45,37,88,80,70,29.87,29.75,12,3,12,0.03
2013-5-16,71,57,49,56,51,46,90,80,54,29.75,29.63,8,2,8,0.15
2013-5-17,63,55,47,52,48,41,88,77,63,29.83,29.72,11,3,11,0.04
2013-5-18,58,53,46,52,48,41,90,82,74,30.02,29.83,6,2,6,0.10
2013-5-19,63,55,49,50,47,42,92,75,53,30.15,30.03,8,4,8,0.00
2013-5-20,71,55,45,54,46,39,87,73,52,30.11,29.68,9,3,9,0.04
2013-5-21,54,49,45,48,43,40,88,80,65,29.68,29.56,12,2,12,0.40
2013-5-22,51,46,44,47,42,40,88,86,82,29.68,29.62,10,3,10,0.75
2013-5-23,51,47,44,48,44,40,91,90,88,29.72,29.68,14,4,14,1.24
2013-5-24,59,52,46,54,47,43,92,85,72,29.82,29.70,13,4,13,0.08
2013-5-25,59,52,45,51,48,42,90,84,73,29.81,29.70,7,2,7,0.02
2013-5-26,64,56,50,56,50,46,92,83,66,29.74,29.68,11,2,11,0.22
2013-5-27,62,55,51,58,51,47,92,84,74,29.71,29.44,19,6,19,0.60
2013-5-28,64,56,51,54,49,46,89,79,63,29.64,29.50,17,4,17,0.04
2013-5-29,59,53,49,52,48,44,92,83,69,29.76,29.39,13,2,13,0.72
2013-5-30,63,53,46,51,46,42,90,80,61,30.00,29.76,12,3,12,0.18
2013-5-31,68,56,46,51,46,43,88,72,51,30.07,29.98,10,2,10,0.00
2013-6-1,74,59,48,56,50,42,87,72,51,29.99,29.77,12,3,12,0.00
2013-6-2,60,55,50,52,49,46,87,81,71,29.83,29.79,10,2,10,0.00
2013-6-13,56,54,52,52,50,49,87,85,83,29.90,29.90,3,1,3,0.00
2013-6-15,77,70,59,58,55,49,73,58,51,29.76,29.65,6,3,6,0.00
2013-6-16,71,61,51,58,52,46,86,75,63,29.85,29.76,6,2,6,0.00
2013-6-17,76,62,53,58,53,48,86,73,47,29.85,29.68,16,3,16,0.10
2013-6-18,68,57,48,55,50,44,88,79,60,29.73,29.67,12,2,12,0.26
2013-6-19,68,57,49,55,49,44,89,76,54,29.79,29.67,12,2,12,0.02
2013-6-20,63,55,47,54,49,43,90,78,62,29.88,29.75,11,2,11,0.02
2013-6-21,67,58,52,58,52,48,90,82,71,29.90,29.85,9,1,9,0.18
2013-6-22,79,62,48,61,53,43,90,72,42,29.87,29.58,10,2,10,0.00
2013-6-23,71,64,59,61,58,54,87,81,71,29.58,29.36,8,1,8,0.09
2013-6-24,68,60,56,59,55,52,89,83,70,29.43,29.32,17,4,17,0.24
2013-6-25,70,61,56,61,56,53,91,84,70,29.57,29.39,18,5,18,0.42
2013-6-26,68,62,57,62,58,54,91,86,77,29.78,29.57,17,4,17,0.12
2013-6-27,72,64,59,65,60,56,93,88,79,29.91,29.75,12,2,12,0.34
2013-6-28,87,76,62,71,64,57,90,69,48,29.90,29.77,13,4,13,0.00
2013-6-29,85,72,60,67,61,56,90,71,49,29.84,29.71,9,2,9,0.00
2013-6-30,90,74,58,70,62,53,87,69,49,29.74,29.57,13,3,13,0.00
2013-7-1,87,72,60,69,62,55,86,71,53,29.78,29.65,13,3,13,0.00
2013-7-2,79,67,55,62,57,50,90,70,50,29.83,29.77,14,3,14,0.00
2013-7-3,77,63,51,59,52,46,83,67,45,29.89,29.77,15,4,15,0.00
2013-7-4,70,59,47,54,49,42,83,69,55,29.86,29.78,15,4,15,0.00
2013-7-5,72,60,49,58,51,43,84,72,56,29.78,29.68,11,2,11,0.00
2013-7-6,77,62,47,60,52,42,85,71,48,29.71,29.58,13,3,14,0.00
2013-7-7,72,61,51,59,52,46,85,74,60,29.71,29.62,14,3,14,0.00
2013-7-8,77,62,49,62,53,44,85,73,55,29.82,29.71,9,2,10,0.00
2013-7-9,85,68,53,62,55,48,87,65,43,29.82,29.72,14,3,14,0.00
2013-7-10,72,62,50,53,48,43,79,63,46,29.81,29.69,17,4,17,0.00
2013-7-11,72,59,46,51,47,41,83,64,44,29.79,29.71,16,4,16,0.00
2013-7-12,70,57,46,53,47,39,80,69,50,29.84,29.73,13,3,13,0.00
2013-7-13,76,60,41,54,46,35,82,62,34,29.90,29.80,15,4,15,0.00
2013-7-14,81,64,46,53,46,37,82,54,28,29.84,29.71,14,4,14,0.00
2013-7-15,80,65,46,54,46,39,82,53,25,29.75,29.57,18,5,18,0.00
2013-7-16,82,69,52,60,53,43,76,56,40,29.64,29.51,13,3,13,0.00
2013-7-17,72,63,54,57,53,48,84,72,58,29.91,29.64,11,3,11,0.00
2013-7-18,78,63,52,60,53,45,87,73,54,29.94,29.81,15,4,15,0.00
2013-7-19,77,62,52,62,54,46,86,74,57,29.88,29.74,14,4,14,0.00
2013-7-20,75,62,54,59,53,48,86,73,51,29.81,29.67,16,4,16,0.00
2013-7-21,75,62,53,60,53,46,85,74,57,29.70,29.62,16,4,16,0.00
2013-7-22,74,63,56,61,55,51,88,76,61,29.76,29.67,14,3,14,0.00
2013-7-23,86,67,53,64,56,51,93,71,39,29.76,29.65,14,5,14,0.00
2013-7-24,84,66,52,62,53,46,87,65,42,29.76,29.68,14,4,14,0.00
2013-7-25,84,65,48,59,51,42,84,62,37,29.80,29.73,12,3,12,0.00
2013-7-26,82,65,48,57,48,41,79,57,28,29.85,29.77,17,4,17,0.00
2013-7-27,76,61,45,56,48,38,78,64,45,29.86,29.70,14,3,14,0.00
2013-7-28,67,64,58,55,54,51,76,69,63,29.72,29.70,6,2,6,0.00
2013-8-9,75,67,61,62,58,55,83,73,63,29.64,29.53,9,2,9,0.00
2013-8-10,75,64,58,64,58,53,90,79,64,29.73,29.57,13,3,13,0.05
2013-8-11,69,62,56,59,55,50,85,79,68,29.75,29.68,7,1,7,0.00
2013-8-12,74,64,56,58,55,49,88,73,55,29.77,29.69,11,2,11,0.00
2013-8-13,84,65,50,62,53,45,82,66,40,29.78,29.60,8,1,8,0.00
2013-8-14,80,63,51,60,54,46,87,74,44,29.63,29.59,12,3,12,0.09
2013-8-15,70,66,62,65,62,59,91,88,84,29.67,29.60,5,1,5,0.08
2013-8-16,85,70,62,67,61,56,93,76,41,29.72,29.63,12,2,12,0.00
2013-8-17,78,66,57,61,57,52,86,75,56,29.77,29.71,7,2,7,0.00
2013-8-18,75,65,57,61,56,51,87,74,59,29.81,29.75,13,3,13,0.00
2013-8-19,78,64,51,60,53,46,84,70,47,29.79,29.75,12,3,12,0.00
2013-8-20,77,63,48,54,49,42,84,63,39,29.83,29.71,15,4,15,0.00
2013-8-21,82,68,54,53,50,46,77,55,32,29.74,29.59,14,5,14,0.00
2013-8-22,81,67,52,62,54,45,78,62,43,29.61,29.51,10,2,10,0.00
2013-8-23,75,66,59,59,56,54,84,71,53,29.59,29.55,12,3,12,0.01
2013-8-24,71,64,56,60,56,50,88,77,58,29.61,29.55,6,1,6,0.13
2013-8-25,68,59,46,59,52,42,87,79,67,29.62,29.56,7,2,7,0.01
2013-8-26,76,64,58,59,56,53,88,76,46,29.63,29.56,16,4,16,0.09
2013-8-27,79,67,59,64,60,55,89,78,54,29.63,29.48,6,1,6,0.04
2013-8-28,81,68,60,65,61,57,89,79,55,29.59,29.51,6,2,6,0.20
2013-8-29,73,66,63,68,62,58,89,85,79,29.72,29.52,12,2,12,1.24
2013-8-30,84,70,62,83,60,56,99,74,51,29.81,29.72,7,3,7,0.01
2013-8-31,68,58,25,59,52,25,99,80,73,29.72,29.52,1,0,1,0.01
2013-9-1,62,58,54,58,53,50,87,84,81,29.57,29.53,2,0,2,0.00
2013-9-3,73,67,59,65,61,57,91,83,72,29.66,29.64,9,2,9,0.00
2013-9-4,72,66,57,63,60,54,93,82,68,29.72,29.67,10,3,10,0.00
2013-9-5,61,60,59,59,58,57,93,92,89,29.71,29.65,10,2,10,0.07
2013-9-14,72,66,59,64,60,55,89,83,77,29.48,29.39,9,2,9,0.00
2013-9-15,65,62,59,62,59,56,92,90,87,29.50,29.39,10,1,10,0.09
2013-9-16,68,62,54,62,58,50,92,85,72,29.60,29.50,13,4,13,0.01
2013-9-17,69,57,50,56,50,46,91,77,56,29.61,29.43,15,2,15,0.00
2013-9-18,70,57,46,57,49,43,90,76,52,29.65,29.45,11,2,11,0.02
2013-9-19,80,60,44,57,49,41,89,71,35,29.56,29.12,20,2,20,0.01
2013-9-20,72,57,45,56,51,40,89,79,56,29.22,28.86,15,3,15,0.07
2013-9-21,68,58,51,60,54,48,93,86,69,28.98,28.86,9,2,9,0.06
2013-9-22,62,56,54,58,53,51,92,89,85,28.95,28.65,24,5,24,0.63
2013-9-23,63,56,50,56,52,46,93,87,70,28.95,28.79,13,2,13,0.36
2013-9-24,66,53,46,55,48,44,93,85,61,28.92,28.52,16,2,16,0.12
2013-9-25,58,52,47,52,48,43,93,87,77,28.69,28.50,7,1,7,0.09
2013-9-26,66,51,41,56,46,38,92,83,63,28.68,28.47,10,2,10,0.01
2013-9-27,53,49,45,51,46,41,92,90,87,28.56,28.30,19,6,19,0.23
2013-9-29,55,53,52,52,50,44,93,89,75,29.42,29.05,28,5,28,1.78
2013-9-30,58,53,49,52,48,46,90,85,73,29.75,29.31,15,3,15,1.64
2013-10-1,60,52,48,52,47,45,91,84,62,29.96,29.73,13,2,13,0.20
2013-10-2,56,50,46,50,46,43,91,88,77,29.96,29.84,14,3,14,0.22
2013-10-3,56,50,44,48,44,41,88,82,69,30.23,30.18,8,1,8,0.00
2013-10-4,45,43,41,41,40,38,91,89,88,30.25,30.23,2,0,2,0.00